createdAt,value
2018-09-17T00:04:41.675Z,42.1
2018-09-17T00:09:49.729Z,42.1
2018-09-17T00:14:57.793Z,42.1
2018-09-17T00:20:05.908Z,42.2
2018-09-17T00:30:22.104Z,43.1
2018-09-17T00:35:30.127Z,42.9
2018-09-17T00:40:38.232Z,43.1
2018-09-17T00:45:46.377Z,43
2018-09-17T00:50:54.505Z,43.1
2018-09-17T00:56:02.714Z,43.5
2018-09-17T01:01:10.763Z,44
2018-09-17T01:06:18.967Z,44
2018-09-17T01:21:43.406Z,44.2
2018-09-17T01:26:51.605Z,44.3
2018-09-17T01:31:59.822Z,44.8
2018-09-17T01:37:07.980Z,44.5
2018-09-17T01:52:32.568Z,44.8
2018-09-17T01:57:40.820Z,45.2
2018-09-17T02:07:57.144Z,45.3
2018-09-17T02:13:05.352Z,45.4
2018-09-17T02:18:13.565Z,45.6
2018-09-17T02:23:21.807Z,45.9
2018-09-17T02:28:30.124Z,45.8
2018-09-17T02:33:38.331Z,46.1
2018-09-17T02:38:46.549Z,45.7
2018-09-17T02:43:57.903Z,45.8
2018-09-17T02:49:03.033Z,46.2
2018-09-17T02:54:11.238Z,46
2018-09-17T03:04:27.710Z,46.2
2018-09-17T03:14:44.142Z,46.6
2018-09-17T03:19:52.682Z,46.4
2018-09-17T03:25:00.616Z,47
2018-09-17T03:30:08.883Z,47.6
2018-09-17T03:35:17.267Z,47.7
2018-09-17T03:40:25.396Z,48
2018-09-17T03:45:33.593Z,48.1
2018-09-17T03:50:41.845Z,48.8
2018-09-17T03:55:49.992Z,49.1
2018-09-17T04:00:58.187Z,49.5
2018-09-17T04:06:06.435Z,49.6
2018-09-17T04:11:14.679Z,49.6
2018-09-17T04:16:23.016Z,49.4
2018-09-17T04:21:31.115Z,49.5
2018-09-17T04:26:39.321Z,49.4
2018-09-17T04:31:47.517Z,49.5
2018-09-17T04:36:55.728Z,49.1
2018-09-17T04:47:12.230Z,49.4
2018-09-17T04:52:20.317Z,49.3
2018-09-17T04:57:28.514Z,49.2
2018-09-17T05:02:36.676Z,49.4
2018-09-17T05:07:44.798Z,49.5
2018-09-17T05:12:52.981Z,49.2
2018-09-17T05:18:01.105Z,48.9
2018-09-17T05:23:09.324Z,49.3
2018-09-17T05:28:17.611Z,48.9
2018-09-17T05:33:25.455Z,49
2018-09-17T05:38:33.563Z,48.3
2018-09-17T05:43:41.622Z,48.3
2018-09-17T05:48:49.721Z,48.7
2018-09-17T05:53:57.852Z,48
2018-09-17T05:59:05.893Z,48.2
2018-09-17T06:04:13.989Z,47.9
2018-09-17T06:09:22.645Z,48.1
2018-09-17T06:14:30.077Z,47.4
2018-09-17T06:19:38.201Z,47.6
2018-09-17T06:29:54.156Z,45.4
2018-09-17T06:35:02.069Z,45.4
2018-09-17T06:40:10.014Z,45.1
2018-09-17T06:45:17.928Z,44.9
2018-09-17T06:55:33.529Z,43.8
2018-09-17T07:00:41.440Z,43.4
2018-09-17T07:05:48.963Z,42.9
2018-09-17T07:10:56.588Z,42.6
2018-09-17T07:16:04.236Z,41.2
2018-09-17T07:21:11.660Z,40.8
2018-09-17T07:26:19.029Z,40
2018-09-17T07:36:34.475Z,37.4
2018-09-17T07:41:40.815Z,36.8
2018-09-17T07:46:47.939Z,35.6
2018-09-17T07:51:54.950Z,35.1
2018-09-17T07:57:01.929Z,34
2018-09-17T08:02:08.840Z,33.3
2018-09-17T08:12:22.841Z,32.2
2018-09-17T08:17:30.124Z,31.6
2018-09-17T08:22:36.270Z,31.9
2018-09-17T08:27:42.957Z,31.6
2018-09-17T08:32:49.703Z,30.5
2018-09-17T08:37:56.451Z,31.5
2018-09-17T08:43:03.200Z,29
2018-09-17T08:48:09.916Z,29.6
2018-09-17T08:53:16.675Z,28
2018-09-17T09:03:30.119Z,29.9
2018-09-17T09:08:36.681Z,28.9
2018-09-17T09:13:44.815Z,28.6
2018-09-17T09:18:49.914Z,28.6
2018-09-17T09:23:56.562Z,28.2
2018-09-17T09:29:03.113Z,27.6
2018-09-17T09:34:09.618Z,27.5
2018-09-17T09:39:16.122Z,26.9
2018-09-17T09:44:22.602Z,27
2018-09-17T09:59:41.954Z,26.9
2018-09-17T10:04:48.568Z,26
2018-09-17T10:09:54.895Z,24.6
2018-09-17T10:15:01.213Z,25.3
2018-09-17T10:20:07.655Z,26.2
2018-09-17T10:25:14.095Z,25.9
2018-09-17T10:30:20.553Z,25.1
2018-09-17T10:35:26.992Z,25.2
2018-09-17T10:40:33.280Z,24.8
2018-09-17T10:45:39.808Z,24.6
2018-09-17T10:50:46.005Z,24.9
2018-09-17T10:55:52.420Z,23.9
2018-09-17T11:00:58.610Z,23.8
2018-09-17T11:06:04.967Z,23.4
2018-09-17T11:11:11.231Z,23.3
2018-09-17T11:16:17.551Z,22.8
2018-09-17T11:21:23.854Z,22.4
2018-09-17T11:26:29.973Z,22.9
2018-09-17T11:41:48.738Z,20
2018-09-17T11:46:55.108Z,20.5
2018-09-17T11:52:01.269Z,20.5
2018-09-17T11:57:07.540Z,20.9
2018-09-17T12:02:14.017Z,21.3
2018-09-17T12:07:20.144Z,21.7
2018-09-17T12:12:26.490Z,21.2
2018-09-17T12:17:32.860Z,20.9
2018-09-17T12:22:39.133Z,20.7
2018-09-17T12:27:45.602Z,19.8
2018-09-17T12:32:51.847Z,20.4
2018-09-17T12:37:58.149Z,20.4
2018-09-17T12:43:04.527Z,20.2
2018-09-17T12:48:10.902Z,20.4
2018-09-17T12:53:17.441Z,20
2018-09-17T12:58:23.777Z,19.6
2018-09-17T13:03:30.171Z,19.2
2018-09-17T13:08:36.653Z,18.4
2018-09-17T13:18:49.599Z,18.6
2018-09-17T13:23:56.072Z,17.9
2018-09-17T13:29:02.543Z,18.1
2018-09-17T13:34:09.080Z,18.1
2018-09-17T13:39:15.557Z,18.2
2018-09-17T13:44:22.180Z,18.6
2018-09-17T13:49:28.707Z,18.4
2018-09-17T13:54:35.283Z,19.2
2018-09-17T13:59:42.089Z,18.5
2018-09-17T14:04:48.631Z,19.2
2018-09-17T14:09:55.350Z,18.1
2018-09-17T14:15:03.663Z,19.4
2018-09-17T14:20:09.278Z,19
2018-09-17T14:25:15.680Z,18.9
2018-09-17T14:30:22.524Z,19
2018-09-17T14:35:29.321Z,19
2018-09-17T14:40:36.298Z,18.8
2018-09-17T14:45:43.036Z,18.9
2018-09-17T14:50:49.917Z,18.8
2018-09-17T15:01:03.718Z,19.3
2018-09-17T15:11:18.071Z,19.4
2018-09-17T15:16:24.449Z,19.9
2018-09-17T15:21:31.547Z,19.8
2018-09-17T15:26:38.329Z,19.9
2018-09-17T15:31:45.323Z,19.6
2018-09-17T15:36:52.319Z,19
2018-09-17T15:41:59.203Z,19.5
2018-09-17T15:47:06.233Z,20
2018-09-17T15:52:13.146Z,20
2018-09-17T15:57:20.110Z,20.4
2018-09-17T16:02:27.461Z,20
2018-09-17T16:07:34.036Z,20.2
2018-09-17T16:17:48.897Z,19.7
2018-09-17T16:22:55.479Z,20.3
2018-09-17T16:28:02.174Z,20.7
2018-09-17T16:33:08.981Z,20.5
2018-09-17T16:43:23.153Z,21.3
2018-09-17T16:48:29.935Z,21
2018-09-17T16:53:36.969Z,20.8
2018-09-17T16:58:44.101Z,21.2
2018-09-17T17:03:50.996Z,21.8
2018-09-17T17:08:57.933Z,22.1
2018-09-17T17:14:05.525Z,21.9
2018-09-17T17:19:12.079Z,23
2018-09-17T17:24:19.312Z,22.2
2018-09-17T17:29:26.154Z,22.4
2018-09-17T17:34:33.255Z,23.2
2018-09-17T17:39:40.298Z,22.8
2018-09-17T17:49:54.512Z,23.4
2018-09-17T17:55:01.646Z,23.2
2018-09-17T18:00:09.035Z,24.1
2018-09-17T18:05:15.961Z,24.2
2018-09-17T18:10:23.130Z,23.9
2018-09-17T18:15:30.318Z,24.7
2018-09-17T18:25:44.775Z,25.4
2018-09-17T18:35:59.280Z,26
2018-09-17T18:41:06.686Z,25.7
2018-09-17T18:46:13.862Z,25.4
2018-09-17T18:51:21.342Z,26
2018-09-17T18:56:28.839Z,26.2
2018-09-17T19:01:36.050Z,26.4
2018-09-17T19:06:43.398Z,26.7
2018-09-17T19:11:50.864Z,26.7
2018-09-17T19:16:58.273Z,27.3
2018-09-17T19:22:05.801Z,27.6
2018-09-17T19:27:13.164Z,27.7
2018-09-17T19:32:20.657Z,28.3
2018-09-17T19:37:28.192Z,27.8
2018-09-17T19:42:35.743Z,28.3
2018-09-17T19:47:43.315Z,29.2
2018-09-17T19:52:50.892Z,29.3
2018-09-17T19:57:58.668Z,29.8
2018-09-17T20:13:21.525Z,30.4
2018-09-17T20:18:29.113Z,31.2
2018-09-17T20:23:36.892Z,31.8
2018-09-17T20:28:44.715Z,31.9
2018-09-17T20:33:52.229Z,31.7
2018-09-17T20:38:59.942Z,32.7
2018-09-17T20:44:08.245Z,32.2
2018-09-17T20:49:15.456Z,32.2
2018-09-17T20:54:23.333Z,33.3
2018-09-17T20:59:30.989Z,33.1
2018-09-17T21:04:38.769Z,33.4
2018-09-17T21:09:46.604Z,33.5
2018-09-17T21:20:02.306Z,34.1
2018-09-17T21:25:10.296Z,35
2018-09-17T21:30:17.959Z,34.3
2018-09-17T21:40:33.718Z,34.7
2018-09-17T21:50:49.435Z,35.7
2018-09-17T21:55:57.367Z,36
2018-09-17T22:01:05.328Z,36
2018-09-17T22:06:13.094Z,36.4
2018-09-17T22:11:21.624Z,36.6
2018-09-17T22:16:28.977Z,36
2018-09-17T22:21:36.909Z,36.5
2018-09-17T22:26:45.450Z,36.3
2018-09-17T22:31:52.990Z,36.6
2018-09-17T22:37:00.742Z,37.3
2018-09-17T22:42:08.721Z,36.6
2018-09-17T22:47:16.839Z,37
2018-09-17T22:52:24.668Z,36.6
2018-09-17T22:57:33.010Z,36.9
2018-09-17T23:02:40.646Z,37.3
2018-09-17T23:07:48.560Z,37.2
2018-09-17T23:12:56.558Z,37.6
2018-09-17T23:18:04.807Z,37.9
2018-09-17T23:23:12.444Z,37.4
2018-09-17T23:33:28.908Z,37.6
2018-09-17T23:38:36.417Z,37.6
2018-09-17T23:43:44.427Z,37.6
2018-09-17T23:48:52.502Z,37.9
2018-09-17T23:54:00.594Z,37.8
2018-09-17T23:59:08.236Z,37.8
